TimeEST,TemperatureF,Dew PointF,Humidity,Sea Level PressureIn,VisibilityMPH,Wind Direction,Wind SpeedMPH,Gust SpeedMPH,PrecipitationIn,Events,Conditions,WindDirDegrees,DateUTC
12:53 AM,15.1,10.0,80,29.98,10.0,WNW,8.1,-,N/A,,Partly Cloudy,300,2013-01-02 05:53:00
1:53 AM,15.1,9.0,77,29.98,10.0,NW,11.5,21.9,N/A,,Clear,320,2013-01-02 06:53:00
2:53 AM,14.0,8.1,77,29.99,10.0,NW,9.2,-,N/A,,Clear,320,2013-01-02 07:53:00
3:53 AM,14.0,8.1,77,29.99,10.0,NW,11.5,-,N/A,,Clear,310,2013-01-02 08:53:00
4:53 AM,14.0,8.1,77,29.98,10.0,NW,13.8,19.6,N/A,,Scattered Clouds,320,2013-01-02 09:53:00
5:53 AM,14.0,9.0,80,29.97,10.0,NW,12.7,20.7,N/A,,Clear,310,2013-01-02 10:53:00
6:53 AM,14.0,8.1,77,29.98,7.0,WNW,9.2,-,N/A,,Clear,290,2013-01-02 11:53:00
7:50 AM,15.8,8.6,73,29.89,10.0,NW,8.1,-,N/A,,Mostly Cloudy,310,2013-01-02 12:50:00
7:53 AM,15.1,9.0,77,30.00,-9999.0,WNW,5.8,-,N/A,,Mostly Cloudy,300,2013-01-02 12:53:00
8:53 AM,16.0,10.0,77,30.02,10.0,WNW,9.2,-,N/A,,Mostly Cloudy,290,2013-01-02 13:53:00
9:04 AM,15.8,10.4,79,29.93,10.0,WNW,10.4,-,N/A,,Scattered Clouds,290,2013-01-02 14:04:00
9:27 AM,17.6,10.4,73,29.94,10.0,WNW,10.4,-,N/A,,Mostly Cloudy,290,2013-01-02 14:27:00
10:53 AM,21.9,12.0,66,30.05,10.0,WNW,15.0,-,0.00,,Overcast,300,2013-01-02 15:53:00
11:53 AM,21.0,12.0,68,30.03,10.0,NW,16.1,23.0,N/A,,Overcast,320,2013-01-02 16:53:00
12:53 PM,21.9,12.0,66,30.02,10.0,WNW,15.0,20.7,N/A,,Mostly Cloudy,290,2013-01-02 17:53:00
1:53 PM,23.0,10.9,60,30.05,8.0,WNW,13.8,21.9,N/A,,Mostly Cloudy,300,2013-01-02 18:53:00
2:04 PM,23.0,10.4,59,29.95,10.0,WNW,13.8,23.0,N/A,,Scattered Clouds,300,2013-01-02 19:04:00
2:53 PM,24.1,10.9,57,30.05,10.0,WNW,16.1,23.0,N/A,,Clear,290,2013-01-02 19:53:00
3:53 PM,23.0,10.9,60,30.06,10.0,NW,9.2,17.3,N/A,,Clear,310,2013-01-02 20:53:00
4:53 PM,23.0,10.9,60,30.08,10.0,WNW,8.1,-,N/A,,Partly Cloudy,300,2013-01-02 21:53:00
5:53 PM,21.9,10.9,63,30.10,10.0,WNW,6.9,-,N/A,,Mostly Cloudy,300,2013-01-02 22:53:00
6:53 PM,21.0,10.9,65,30.11,10.0,NW,5.8,-,N/A,,Clear,310,2013-01-02 23:53:00
7:53 PM,21.0,10.9,65,30.11,10.0,West,4.6,-,N/A,,Clear,280,2013-01-03 00:53:00
9:53 PM,19.0,10.0,68,30.13,10.0,West,3.5,-,N/A,,Overcast,280,2013-01-03 02:53:00
10:20 PM,19.4,10.4,68,30.04,10.0,Calm,Calm,-,N/A,,Overcast,0,2013-01-03 03:20:00
10:53 PM,19.0,10.9,71,30.15,-9999.0,WNW,4.6,-,N/A,,Overcast,290,2013-01-03 03:53:00
11:04 PM,19.4,10.4,68,30.05,10.0,WNW,4.6,-,N/A,,Overcast,300,2013-01-03 04:04:00
11:53 PM,19.0,10.9,71,30.16,10.0,NW,8.1,-,N/A,,Overcast,310,2013-01-03 04:53:00